createdAt,value
2023-05-16T00:00:19.125Z,10.16
2023-05-16T00:03:21.985Z,10.13
2023-05-16T00:06:24.912Z,10.07
2023-05-16T00:09:27.875Z,10.08
2023-05-16T00:12:30.968Z,10.09
2023-05-16T00:15:33.771Z,10.07
2023-05-16T00:18:39.338Z,10.06
2023-05-16T00:21:42.128Z,10.07
2023-05-16T00:24:44.933Z,10.08
2023-05-16T00:27:47.884Z,10.05
2023-05-16T00:30:51.426Z,10.04
2023-05-16T00:33:55.097Z,10.08
2023-05-16T00:36:57.676Z,10.03
2023-05-16T00:40:00.644Z,9.97
2023-05-16T00:43:03.307Z,9.96
2023-05-16T00:46:06.309Z,9.99
2023-05-16T00:49:09.737Z,10.01
2023-05-16T00:52:14.221Z,10.03
2023-05-16T00:55:17.059Z,9.98
2023-05-16T00:58:20.131Z,9.98
2023-05-16T01:01:24.916Z,10.02
2023-05-16T01:04:28.920Z,10.00
2023-05-16T01:07:32.353Z,9.95
2023-05-16T01:10:49.225Z,9.97
2023-05-16T01:13:57.098Z,9.79
2023-05-16T01:17:16.347Z,10.02
2023-05-16T01:20:41.038Z,10.10
2023-05-16T01:23:57.894Z,10.08
2023-05-16T01:27:00.781Z,10.13
2023-05-16T01:30:14.324Z,10.00
2023-05-16T01:33:17.269Z,10.01
2023-05-16T01:36:41.893Z,9.91
2023-05-16T01:40:13.865Z,9.87
2023-05-16T01:43:20.702Z,9.82
2023-05-16T01:46:30.305Z,9.77
2023-05-16T01:49:41.769Z,9.71
2023-05-16T01:52:51.483Z,9.78
2023-05-16T01:55:57.261Z,9.79
2023-05-16T01:59:00.110Z,9.71
2023-05-16T02:02:03.184Z,9.77
2023-05-16T02:05:07.380Z,9.80
2023-05-16T02:08:10.142Z,9.72
2023-05-16T02:11:12.905Z,9.70
2023-05-16T02:14:15.713Z,9.69
2023-05-16T02:17:18.398Z,9.69
2023-05-16T02:20:21.448Z,9.61
2023-05-16T02:23:24.252Z,9.52
2023-05-16T02:26:27.173Z,9.60
2023-05-16T02:29:29.929Z,9.63
2023-05-16T02:32:33.423Z,9.60
2023-05-16T02:35:36.112Z,9.65
2023-05-16T02:38:38.961Z,9.67
2023-05-16T02:41:41.992Z,9.74
2023-05-16T02:44:46.630Z,9.79
2023-05-16T02:47:49.523Z,9.78
2023-05-16T02:50:54.582Z,9.77
2023-05-16T02:53:57.486Z,9.73
2023-05-16T02:57:00.231Z,9.79
2023-05-16T03:00:03.263Z,9.80
2023-05-16T03:03:06.345Z,9.79
2023-05-16T03:06:09.148Z,9.75
2023-05-16T03:09:12.098Z,9.66
2023-05-16T03:12:14.921Z,9.64
2023-05-16T03:15:17.762Z,9.67
2023-05-16T03:18:20.520Z,9.57
2023-05-16T03:21:23.341Z,9.58
2023-05-16T03:24:26.570Z,9.55
2023-05-16T03:27:29.596Z,9.57
2023-05-16T03:30:32.412Z,9.54
2023-05-16T03:33:35.425Z,9.49
2023-05-16T03:36:39.858Z,9.52
2023-05-16T03:39:42.595Z,9.56
2023-05-16T03:42:45.530Z,9.66
2023-05-16T03:45:48.547Z,9.69
2023-05-16T03:48:51.434Z,9.82
2023-05-16T03:51:55.332Z,10.09
2023-05-16T03:54:57.981Z,10.30
2023-05-16T03:58:00.755Z,10.31
2023-05-16T04:01:04.253Z,10.18
2023-05-16T04:04:07.485Z,10.13
2023-05-16T04:07:10.308Z,10.21
2023-05-16T04:10:13.324Z,10.24
2023-05-16T04:13:16.722Z,10.36
2023-05-16T04:16:19.607Z,10.45
2023-05-16T04:19:22.568Z,10.57
2023-05-16T04:22:25.343Z,10.59
2023-05-16T04:25:29.764Z,10.68
2023-05-16T04:28:32.809Z,10.78
2023-05-16T04:31:35.582Z,10.66
2023-05-16T04:34:40.042Z,10.60
2023-05-16T04:37:43.239Z,10.75
2023-05-16T04:40:46.130Z,10.61
2023-05-16T04:43:49.378Z,10.59
2023-05-16T04:46:53.317Z,10.35
2023-05-16T04:49:56.613Z,10.34
2023-05-16T04:53:03.992Z,10.40
2023-05-16T04:56:07.266Z,10.67
2023-05-16T04:59:10.063Z,10.87
2023-05-16T05:02:13.184Z,10.96
2023-05-16T05:05:17.273Z,10.98
2023-05-16T05:08:20.329Z,11.22
2023-05-16T05:11:23.535Z,11.30
2023-05-16T05:14:26.636Z,11.55
2023-05-16T05:17:30.091Z,11.80
2023-05-16T05:20:33.053Z,11.93
2023-05-16T05:23:36.127Z,11.82
2023-05-16T05:26:38.866Z,11.70
2023-05-16T05:29:41.703Z,11.56
2023-05-16T05:32:44.493Z,11.34
2023-05-16T05:35:47.131Z,11.10
2023-05-16T05:38:49.935Z,11.23
2023-05-16T05:41:52.998Z,11.20
2023-05-16T05:44:56.007Z,11.15
2023-05-16T05:47:58.954Z,11.33
2023-05-16T05:51:01.870Z,11.44
2023-05-16T05:54:04.631Z,11.59
2023-05-16T05:57:07.439Z,11.73
2023-05-16T06:00:13.986Z,11.79
2023-05-16T06:03:50.006Z,12.01
2023-05-16T06:07:02.320Z,12.05
2023-05-16T06:10:09.171Z,12.02
2023-05-16T06:13:15.017Z,12.22
2023-05-16T06:16:18.246Z,12.33
2023-05-16T06:19:22.921Z,12.61
2023-05-16T06:22:25.970Z,12.82
2023-05-16T06:25:28.967Z,12.82
2023-05-16T06:28:32.058Z,13.03
2023-05-16T06:31:34.963Z,13.11
2023-05-16T06:34:37.981Z,13.42
2023-05-16T06:37:42.937Z,13.60
2023-05-16T06:40:46.321Z,14.08
2023-05-16T06:43:49.866Z,14.36
2023-05-16T06:46:52.819Z,14.80
2023-05-16T06:49:55.764Z,15.57
2023-05-16T06:53:05.552Z,16.19
2023-05-16T06:56:11.500Z,16.57
2023-05-16T06:59:17.578Z,16.96
2023-05-16T07:02:21.335Z,17.23
2023-05-16T07:05:26.873Z,17.39
2023-05-16T07:08:39.417Z,17.24
2023-05-16T07:11:50.262Z,17.63
2023-05-16T07:14:59.312Z,17.42
2023-05-16T07:18:12.192Z,17.42
2023-05-16T07:21:19.059Z,17.11
2023-05-16T07:24:22.014Z,16.26
2023-05-16T07:27:25.028Z,16.29
2023-05-16T07:30:28.008Z,16.26
2023-05-16T07:33:33.825Z,16.28
2023-05-16T07:36:36.922Z,15.99
2023-05-16T07:39:41.891Z,15.73
2023-05-16T07:42:45.140Z,15.58
2023-05-16T07:45:49.696Z,15.54
2023-05-16T07:48:52.743Z,15.31
2023-05-16T07:51:57.020Z,15.43
2023-05-16T07:54:59.958Z,15.19
2023-05-16T07:58:03.834Z,15.42
2023-05-16T08:01:07.381Z,15.34
2023-05-16T08:04:14.689Z,15.45
2023-05-16T08:07:18.868Z,15.39
2023-05-16T08:10:23.932Z,15.84
2023-05-16T08:13:26.917Z,15.98
2023-05-16T08:16:32.901Z,16.28
2023-05-16T08:19:36.155Z,16.20
2023-05-16T08:22:39.166Z,16.43
2023-05-16T08:25:41.934Z,16.34
2023-05-16T08:28:47.821Z,16.32
2023-05-16T08:31:51.078Z,16.47
2023-05-16T08:34:54.214Z,16.45
2023-05-16T08:37:56.992Z,16.53
2023-05-16T08:40:59.848Z,16.47
2023-05-16T08:44:05.169Z,16.52
2023-05-16T08:47:15.968Z,16.42
2023-05-16T08:50:19.249Z,16.43
2023-05-16T08:53:24.328Z,16.24
2023-05-16T08:56:28.865Z,16.22
2023-05-16T08:59:32.317Z,16.03
2023-05-16T09:02:35.317Z,15.83
2023-05-16T09:05:38.896Z,15.84
2023-05-16T09:08:42.342Z,15.79
2023-05-16T09:11:45.381Z,15.66
2023-05-16T09:14:48.361Z,15.55
2023-05-16T09:17:51.804Z,15.47
2023-05-16T09:20:55.113Z,15.50
2023-05-16T09:23:58.345Z,15.57
2023-05-16T09:27:09.257Z,15.61
2023-05-16T09:30:16.271Z,15.52
2023-05-16T09:33:18.853Z,15.28
2023-05-16T09:36:21.526Z,15.49
2023-05-16T09:39:27.847Z,15.39
2023-05-16T09:42:31.875Z,15.26
2023-05-16T09:45:36.862Z,15.15
2023-05-16T09:48:42.522Z,15.17
2023-05-16T09:51:46.376Z,15.10
2023-05-16T09:54:50.394Z,15.15
2023-05-16T09:57:53.394Z,15.27
2023-05-16T10:00:57.086Z,15.17
2023-05-16T10:04:00.294Z,15.32
2023-05-16T10:07:05.046Z,15.58
2023-05-16T10:10:08.946Z,15.91
2023-05-16T10:13:12.301Z,16.19
2023-05-16T10:16:15.419Z,16.29
2023-05-16T10:19:21.020Z,16.51
2023-05-16T10:22:24.171Z,16.71
2023-05-16T10:25:33.135Z,16.65
2023-05-16T10:28:39.945Z,16.70
2023-05-16T10:31:42.971Z,16.77
2023-05-16T10:34:46.772Z,16.72
2023-05-16T10:37:51.576Z,16.69
2023-05-16T10:40:54.599Z,16.66
2023-05-16T10:43:58.672Z,16.58
2023-05-16T10:47:01.836Z,16.58
2023-05-16T10:50:04.968Z,16.71
2023-05-16T10:53:22.593Z,16.62
2023-05-16T10:56:27.282Z,16.93
2023-05-16T10:59:30.226Z,16.84
2023-05-16T11:02:35.165Z,17.06
2023-05-16T11:05:38.233Z,17.43
2023-05-16T11:09:10.815Z,17.60
2023-05-16T11:12:14.123Z,17.96
2023-05-16T11:15:28.944Z,18.13
2023-05-16T11:18:33.966Z,18.14
2023-05-16T11:22:08.102Z,18.08
2023-05-16T11:25:11.434Z,17.82
2023-05-16T11:28:15.145Z,17.58
2023-05-16T11:31:18.652Z,17.45
2023-05-16T11:34:21.845Z,17.13
2023-05-16T11:37:24.809Z,17.02
2023-05-16T11:40:27.943Z,17.04
2023-05-16T11:43:31.443Z,16.94
2023-05-16T11:46:34.572Z,16.80
2023-05-16T11:49:37.864Z,16.63
2023-05-16T11:52:41.349Z,16.57
2023-05-16T11:55:45.302Z,16.55
2023-05-16T11:58:51.266Z,16.59
2023-05-16T12:01:54.232Z,16.54
2023-05-16T12:04:57.272Z,16.46
2023-05-16T12:08:00.234Z,16.31
2023-05-16T12:11:03.481Z,16.27
2023-05-16T12:14:07.849Z,16.24
2023-05-16T12:17:10.843Z,16.24
2023-05-16T12:20:21.268Z,16.21
2023-05-16T12:23:24.255Z,16.29
2023-05-16T12:26:33.915Z,16.01
2023-05-16T12:29:37.101Z,15.95
2023-05-16T12:32:40.555Z,16.18
2023-05-16T12:35:46.059Z,16.36
2023-05-16T12:38:49.225Z,16.47
2023-05-16T12:41:51.999Z,16.27
2023-05-16T12:44:58.473Z,16.17
2023-05-16T12:48:09.731Z,16.28
2023-05-16T12:51:14.827Z,16.56
2023-05-16T12:54:18.015Z,16.64
2023-05-16T12:57:20.959Z,16.43
2023-05-16T13:00:24.029Z,16.33
2023-05-16T13:03:28.287Z,16.39
2023-05-16T13:06:44.985Z,16.18
2023-05-16T13:09:54.526Z,15.86
2023-05-16T13:13:00.396Z,16.16
2023-05-16T13:16:06.120Z,16.42
2023-05-16T13:19:09.276Z,16.51
2023-05-16T13:22:12.311Z,16.41
2023-05-16T13:25:18.185Z,16.07
2023-05-16T13:28:21.469Z,16.18
2023-05-16T13:31:24.615Z,16.27
2023-05-16T13:34:27.682Z,16.05
2023-05-16T13:37:30.797Z,16.17
2023-05-16T13:40:34.320Z,16.12
2023-05-16T13:43:37.412Z,15.88
2023-05-16T13:46:40.340Z,15.57
2023-05-16T13:49:43.749Z,15.53
2023-05-16T13:52:48.024Z,15.63
2023-05-16T13:55:50.843Z,15.60
2023-05-16T13:59:02.490Z,15.67
2023-05-16T14:02:09.519Z,15.68
2023-05-16T14:05:12.628Z,15.66
2023-05-16T14:08:15.648Z,15.46
2023-05-16T14:11:20.516Z,15.38
2023-05-16T14:14:23.366Z,15.16
2023-05-16T14:17:26.556Z,15.22
2023-05-16T14:20:29.738Z,15.05
2023-05-16T14:23:32.841Z,15.15
2023-05-16T14:26:35.682Z,14.93
2023-05-16T14:29:38.662Z,14.74
2023-05-16T14:32:41.524Z,14.74
2023-05-16T14:35:44.549Z,14.64
2023-05-16T14:38:49.554Z,14.62
2023-05-16T14:41:52.504Z,14.38
2023-05-16T14:44:55.503Z,14.42
2023-05-16T14:47:58.300Z,14.45
2023-05-16T14:51:01.364Z,14.47
2023-05-16T14:54:04.571Z,14.49
2023-05-16T14:57:07.731Z,14.49
2023-05-16T15:00:12.214Z,14.42
2023-05-16T15:03:17.439Z,14.36
2023-05-16T15:06:20.719Z,14.28
2023-05-16T15:09:23.790Z,14.08
2023-05-16T15:12:26.608Z,13.99
2023-05-16T15:15:29.430Z,13.92
2023-05-16T15:18:32.481Z,14.10
2023-05-16T15:21:35.338Z,14.05
2023-05-16T15:24:38.078Z,14.15
2023-05-16T15:27:41.210Z,14.13
2023-05-16T15:30:44.102Z,13.97
2023-05-16T15:33:48.640Z,13.97
2023-05-16T15:36:52.255Z,13.87
2023-05-16T15:39:55.325Z,13.91
2023-05-16T15:42:58.164Z,13.84
2023-05-16T15:46:01.255Z,13.73
2023-05-16T15:49:04.343Z,13.78
2023-05-16T15:52:07.514Z,13.76
2023-05-16T15:55:12.337Z,13.73
2023-05-16T15:58:15.361Z,13.72
2023-05-16T16:01:18.224Z,13.72
2023-05-16T16:04:23.358Z,13.70
2023-05-16T16:07:27.037Z,13.67
2023-05-16T16:10:29.985Z,13.75
2023-05-16T16:13:33.473Z,13.64
2023-05-16T16:16:37.869Z,13.57
2023-05-16T16:19:41.531Z,13.54
2023-05-16T16:22:44.420Z,13.46
2023-05-16T16:25:47.603Z,13.42
2023-05-16T16:28:53.294Z,13.42
2023-05-16T16:31:56.635Z,13.39
2023-05-16T16:34:59.621Z,13.34
2023-05-16T16:38:07.170Z,13.33
2023-05-16T16:41:10.711Z,13.18
2023-05-16T16:44:14.026Z,13.12
2023-05-16T16:47:17.444Z,13.14
2023-05-16T16:50:32.834Z,13.13
2023-05-16T16:53:38.246Z,13.17
2023-05-16T16:56:41.058Z,13.22
2023-05-16T16:59:46.850Z,13.13
2023-05-16T17:02:49.929Z,13.11
2023-05-16T17:05:54.248Z,13.11
2023-05-16T17:08:57.046Z,13.13
2023-05-16T17:12:04.923Z,13.11
2023-05-16T17:15:08.573Z,13.17
2023-05-16T17:18:11.607Z,13.19
2023-05-16T17:21:14.498Z,13.18
2023-05-16T17:24:19.926Z,13.17
2023-05-16T17:27:22.622Z,13.11
2023-05-16T17:30:26.540Z,13.08
2023-05-16T17:33:29.443Z,13.05
2023-05-16T17:36:32.343Z,13.00
2023-05-16T17:39:35.213Z,12.93
2023-05-16T17:42:38.836Z,13.00
2023-05-16T17:45:41.628Z,12.89
2023-05-16T17:48:44.610Z,12.94
2023-05-16T17:51:47.842Z,12.95
2023-05-16T17:54:50.604Z,12.92
2023-05-16T17:57:53.512Z,12.88
2023-05-16T18:00:56.497Z,12.90
2023-05-16T18:03:59.780Z,12.86
2023-05-16T18:07:03.398Z,12.88
2023-05-16T18:10:06.855Z,12.83
2023-05-16T18:13:09.795Z,12.80
2023-05-16T18:16:13.037Z,12.77
2023-05-16T18:19:16.023Z,12.80
2023-05-16T18:22:18.994Z,12.84
2023-05-16T18:25:22.295Z,12.88
2023-05-16T18:28:25.224Z,12.88
2023-05-16T18:31:28.109Z,12.88
2023-05-16T18:34:30.832Z,12.88
2023-05-16T18:37:33.754Z,12.82
2023-05-16T18:40:36.584Z,12.86
2023-05-16T18:43:39.430Z,12.91
2023-05-16T18:46:42.242Z,12.86
2023-05-16T18:49:45.077Z,12.70
2023-05-16T18:52:48.065Z,12.67
2023-05-16T18:55:51.288Z,12.53
2023-05-16T18:58:54.112Z,12.59
2023-05-16T19:01:56.978Z,12.60
2023-05-16T19:05:01.616Z,12.66
2023-05-16T19:08:05.963Z,12.73
2023-05-16T19:11:09.154Z,12.71
2023-05-16T19:14:12.183Z,12.79
2023-05-16T19:17:15.286Z,12.74
2023-05-16T19:20:18.221Z,12.74
2023-05-16T19:23:21.051Z,12.79
2023-05-16T19:26:24.357Z,12.76
2023-05-16T19:29:27.217Z,12.76
2023-05-16T19:32:30.728Z,12.72
2023-05-16T19:35:33.500Z,12.76
2023-05-16T19:38:36.521Z,12.75
2023-05-16T19:41:39.471Z,12.75
2023-05-16T19:44:43.198Z,12.79
2023-05-16T19:47:46.111Z,12.74
2023-05-16T19:50:49.061Z,12.69
2023-05-16T19:53:52.014Z,12.69
2023-05-16T19:56:55.848Z,12.76
2023-05-16T19:59:58.804Z,12.65
2023-05-16T20:03:01.723Z,12.70
2023-05-16T20:06:05.034Z,12.76
2023-05-16T20:09:08.439Z,12.63
2023-05-16T20:12:11.463Z,12.73
2023-05-16T20:15:14.637Z,12.69
2023-05-16T20:18:18.008Z,12.68
2023-05-16T20:21:20.873Z,12.65
2023-05-16T20:24:23.751Z,12.65
2023-05-16T20:27:26.614Z,12.69
2023-05-16T20:30:30.565Z,12.60
2023-05-16T20:33:33.739Z,12.53
2023-05-16T20:36:36.881Z,12.49
2023-05-16T20:39:40.449Z,12.41
2023-05-16T20:42:43.540Z,12.40
2023-05-16T20:45:46.415Z,12.48
2023-05-16T20:48:49.649Z,12.58
2023-05-16T20:51:52.775Z,12.58
2023-05-16T20:54:55.528Z,12.58
2023-05-16T20:57:59.092Z,12.59
2023-05-16T21:01:02.717Z,12.44
2023-05-16T21:04:05.802Z,12.47
2023-05-16T21:07:08.865Z,12.46
2023-05-16T21:10:11.855Z,12.50
2023-05-16T21:13:14.862Z,12.44
2023-05-16T21:16:17.869Z,12.41
2023-05-16T21:19:21.372Z,12.42
2023-05-16T21:22:24.945Z,12.47
2023-05-16T21:25:27.957Z,12.53
2023-05-16T21:28:32.757Z,12.53
2023-05-16T21:31:37.480Z,12.53
2023-05-16T21:34:40.401Z,12.55
2023-05-16T21:37:43.237Z,12.52
2023-05-16T21:40:48.875Z,12.47
2023-05-16T21:43:51.766Z,12.41
2023-05-16T21:46:54.896Z,12.46
2023-05-16T21:49:57.970Z,12.46
2023-05-16T21:53:00.995Z,12.40
2023-05-16T21:56:04.118Z,12.43
2023-05-16T21:59:09.369Z,12.51
2023-05-16T22:02:12.274Z,12.52
2023-05-16T22:05:19.503Z,12.51
2023-05-16T22:08:22.546Z,12.49
2023-05-16T22:11:25.329Z,12.51
2023-05-16T22:14:28.211Z,12.47
2023-05-16T22:17:32.036Z,12.43
2023-05-16T22:20:34.906Z,12.43
2023-05-16T22:23:39.666Z,12.43
2023-05-16T22:26:42.585Z,12.46
2023-05-16T22:29:45.381Z,12.47
2023-05-16T22:32:48.325Z,12.43
2023-05-16T22:35:51.287Z,12.46
2023-05-16T22:38:54.241Z,12.42
2023-05-16T22:41:57.111Z,12.50
2023-05-16T22:45:00.212Z,12.45
2023-05-16T22:48:03.233Z,12.39
2023-05-16T22:51:06.354Z,12.40
2023-05-16T22:54:09.216Z,12.30
2023-05-16T22:57:12.086Z,12.33
2023-05-16T23:00:15.368Z,12.37
2023-05-16T23:03:18.206Z,12.27
2023-05-16T23:06:21.098Z,12.28
2023-05-16T23:09:23.895Z,12.27
2023-05-16T23:12:27.060Z,12.24
2023-05-16T23:15:29.915Z,12.35
2023-05-16T23:18:32.985Z,12.32
2023-05-16T23:21:36.482Z,12.26
2023-05-16T23:24:39.237Z,12.22
2023-05-16T23:27:42.114Z,12.28
2023-05-16T23:30:45.398Z,12.34
2023-05-16T23:33:48.208Z,12.28
2023-05-16T23:36:51.539Z,12.31
2023-05-16T23:39:54.436Z,12.33
2023-05-16T23:42:57.254Z,12.25
2023-05-16T23:45:59.944Z,12.30
2023-05-16T23:49:02.939Z,12.29
2023-05-16T23:52:06.505Z,12.33
2023-05-16T23:55:09.970Z,12.30
2023-05-16T23:58:13.282Z,12.37
